sensor_id;sensor_type;location;lat;lon;timestamp;P1;durP1;ratioP1;P2;durP2;ratioP2
70818;SDS011;58439;51.046;13.692;2023-06-22T00:00:58;11.77;;;8.10;;
70818;SDS011;58439;51.046;13.692;2023-06-22T00:03:53;14.45;;;8.75;;
70818;SDS011;58439;51.046;13.692;2023-06-22T00:06:52;14.57;;;9.70;;
70818;SDS011;58439;51.046;13.692;2023-06-22T00:09:33;14.50;;;9.55;;
70818;SDS011;58439;51.046;13.692;2023-06-22T00:12:18;16.92;;;10.65;;
70818;SDS011;58439;51.046;13.692;2023-06-22T00:14:56;17.25;;;10.90;;
70818;SDS011;58439;51.046;13.692;2023-06-22T00:17:42;16.00;;;10.38;;
70818;SDS011;58439;51.046;13.692;2023-06-22T00:20:31;17.15;;;10.15;;
70818;SDS011;58439;51.046;13.692;2023-06-22T00:23:10;20.70;;;10.45;;
70818;SDS011;58439;51.046;13.692;2023-06-22T00:25:59;16.75;;;9.45;;
70818;SDS011;58439;51.046;13.692;2023-06-22T00:29:54;16.98;;;9.70;;
70818;SDS011;58439;51.046;13.692;2023-06-22T00:32:39;14.93;;;8.60;;
70818;SDS011;58439;51.046;13.692;2023-06-22T00:35:17;14.60;;;9.13;;
70818;SDS011;58439;51.046;13.692;2023-06-22T00:37:51;15.85;;;9.10;;
70818;SDS011;58439;51.046;13.692;2023-06-22T00:40:31;14.18;;;8.68;;
70818;SDS011;58439;51.046;13.692;2023-06-22T00:43:08;15.23;;;9.00;;
70818;SDS011;58439;51.046;13.692;2023-06-22T00:45:46;15.23;;;9.57;;
70818;SDS011;58439;51.046;13.692;2023-06-22T00:48:23;14.15;;;9.35;;
70818;SDS011;58439;51.046;13.692;2023-06-22T00:51:06;15.27;;;9.43;;
70818;SDS011;58439;51.046;13.692;2023-06-22T00:53:55;18.95;;;9.05;;
70818;SDS011;58439;51.046;13.692;2023-06-22T00:56:39;12.52;;;9.13;;
70818;SDS011;58439;51.046;13.692;2023-06-22T00:59:14;17.92;;;8.85;;
70818;SDS011;58439;51.046;13.692;2023-06-22T01:01:49;14.93;;;9.07;;
70818;SDS011;58439;51.046;13.692;2023-06-22T01:04:26;13.68;;;8.65;;
70818;SDS011;58439;51.046;13.692;2023-06-22T01:07:30;18.10;;;9.20;;
70818;SDS011;58439;51.046;13.692;2023-06-22T01:13:02;13.45;;;8.80;;
70818;SDS011;58439;51.046;13.692;2023-06-22T01:15:57;15.10;;;9.60;;
70818;SDS011;58439;51.046;13.692;2023-06-22T01:18:46;16.23;;;9.35;;
70818;SDS011;58439;51.046;13.692;2023-06-22T01:21:20;18.92;;;10.75;;
70818;SDS011;58439;51.046;13.692;2023-06-22T01:27:05;13.93;;;9.27;;
70818;SDS011;58439;51.046;13.692;2023-06-22T01:30:32;16.85;;;9.15;;
70818;SDS011;58439;51.046;13.692;2023-06-22T01:33:10;14.43;;;9.20;;
70818;SDS011;58439;51.046;13.692;2023-06-22T01:35:41;15.57;;;9.77;;
70818;SDS011;58439;51.046;13.692;2023-06-22T01:38:15;14.55;;;8.90;;
70818;SDS011;58439;51.046;13.692;2023-06-22T01:40:43;14.35;;;10.00;;
70818;SDS011;58439;51.046;13.692;2023-06-22T01:43:11;13.15;;;9.88;;
70818;SDS011;58439;51.046;13.692;2023-06-22T01:45:38;15.98;;;10.65;;
70818;SDS011;58439;51.046;13.692;2023-06-22T01:48:05;13.50;;;9.63;;
70818;SDS011;58439;51.046;13.692;2023-06-22T01:50:34;15.40;;;9.77;;
70818;SDS011;58439;51.046;13.692;2023-06-22T01:53:02;16.13;;;9.75;;
70818;SDS011;58439;51.046;13.692;2023-06-22T01:55:29;18.63;;;10.80;;
70818;SDS011;58439;51.046;13.692;2023-06-22T01:57:56;19.00;;;10.75;;
70818;SDS011;58439;51.046;13.692;2023-06-22T02:00:25;19.27;;;11.30;;
70818;SDS011;58439;51.046;13.692;2023-06-22T02:03:01;15.38;;;10.55;;
70818;SDS011;58439;51.046;13.692;2023-06-22T02:06:06;17.92;;;12.05;;
70818;SDS011;58439;51.046;13.692;2023-06-22T02:08:46;16.10;;;11.60;;
70818;SDS011;58439;51.046;13.692;2023-06-22T02:11:18;21.40;;;10.88;;
70818;SDS011;58439;51.046;13.692;2023-06-22T02:13:49;15.38;;;10.52;;
70818;SDS011;58439;51.046;13.692;2023-06-22T02:16:17;17.42;;;10.82;;
70818;SDS011;58439;51.046;13.692;2023-06-22T02:18:48;16.15;;;10.32;;
70818;SDS011;58439;51.046;13.692;2023-06-22T02:21:18;15.65;;;10.95;;
70818;SDS011;58439;51.046;13.692;2023-06-22T02:23:46;18.83;;;11.63;;
70818;SDS011;58439;51.046;13.692;2023-06-22T02:26:15;18.88;;;12.02;;
70818;SDS011;58439;51.046;13.692;2023-06-22T02:28:44;21.95;;;11.63;;
70818;SDS011;58439;51.046;13.692;2023-06-22T02:31:12;17.10;;;11.35;;
70818;SDS011;58439;51.046;13.692;2023-06-22T02:33:40;17.98;;;11.45;;
70818;SDS011;58439;51.046;13.692;2023-06-22T02:36:09;18.48;;;11.30;;
70818;SDS011;58439;51.046;13.692;2023-06-22T02:38:43;17.73;;;11.05;;
70818;SDS011;58439;51.046;13.692;2023-06-22T02:41:14;15.98;;;10.88;;
70818;SDS011;58439;51.046;13.692;2023-06-22T02:43:45;19.35;;;11.52;;
70818;SDS011;58439;51.046;13.692;2023-06-22T02:46:12;17.67;;;10.82;;
70818;SDS011;58439;51.046;13.692;2023-06-22T02:48:40;18.70;;;11.52;;
70818;SDS011;58439;51.046;13.692;2023-06-22T02:51:09;21.90;;;11.85;;
70818;SDS011;58439;51.046;13.692;2023-06-22T02:53:36;21.50;;;12.25;;
70818;SDS011;58439;51.046;13.692;2023-06-22T02:56:04;16.33;;;11.80;;
70818;SDS011;58439;51.046;13.692;2023-06-22T02:58:36;19.65;;;13.25;;
70818;SDS011;58439;51.046;13.692;2023-06-22T03:01:09;22.88;;;13.13;;
70818;SDS011;58439;51.046;13.692;2023-06-22T03:03:36;21.02;;;11.85;;
70818;SDS011;58439;51.046;13.692;2023-06-22T03:06:04;23.48;;;11.50;;
70818;SDS011;58439;51.046;13.692;2023-06-22T03:08:31;20.60;;;11.88;;
70818;SDS011;58439;51.046;13.692;2023-06-22T03:10:59;18.88;;;11.82;;
70818;SDS011;58439;51.046;13.692;2023-06-22T03:13:26;18.40;;;11.30;;
70818;SDS011;58439;51.046;13.692;2023-06-22T03:15:54;18.33;;;10.40;;
70818;SDS011;58439;51.046;13.692;2023-06-22T03:18:21;20.00;;;11.60;;
70818;SDS011;58439;51.046;13.692;2023-06-22T03:20:49;19.17;;;11.02;;
70818;SDS011;58439;51.046;13.692;2023-06-22T03:23:16;19.55;;;11.60;;
70818;SDS011;58439;51.046;13.692;2023-06-22T03:25:43;16.02;;;11.00;;
70818;SDS011;58439;51.046;13.692;2023-06-22T03:28:13;17.83;;;11.90;;
70818;SDS011;58439;51.046;13.692;2023-06-22T03:30:40;18.05;;;12.05;;
70818;SDS011;58439;51.046;13.692;2023-06-22T03:33:08;16.52;;;11.50;;
70818;SDS011;58439;51.046;13.692;2023-06-22T03:35:35;20.00;;;12.88;;
70818;SDS011;58439;51.046;13.692;2023-06-22T03:38:02;20.08;;;12.32;;
70818;SDS011;58439;51.046;13.692;2023-06-22T03:40:30;18.20;;;11.68;;
70818;SDS011;58439;51.046;13.692;2023-06-22T03:42:58;22.15;;;11.75;;
70818;SDS011;58439;51.046;13.692;2023-06-22T03:45:25;19.67;;;11.52;;
70818;SDS011;58439;51.046;13.692;2023-06-22T03:47:52;19.80;;;11.98;;
70818;SDS011;58439;51.046;13.692;2023-06-22T03:50:20;17.65;;;12.32;;
70818;SDS011;58439;51.046;13.692;2023-06-22T03:52:47;22.27;;;12.75;;
70818;SDS011;58439;51.046;13.692;2023-06-22T03:55:15;17.63;;;11.45;;
70818;SDS011;58439;51.046;13.692;2023-06-22T03:57:42;16.83;;;11.00;;
70818;SDS011;58439;51.046;13.692;2023-06-22T04:00:09;17.35;;;11.23;;
70818;SDS011;58439;51.046;13.692;2023-06-22T04:02:38;19.20;;;12.25;;
70818;SDS011;58439;51.046;13.692;2023-06-22T04:05:06;19.50;;;11.68;;
70818;SDS011;58439;51.046;13.692;2023-06-22T04:07:38;19.38;;;12.30;;
70818;SDS011;58439;51.046;13.692;2023-06-22T04:10:06;22.88;;;12.00;;
70818;SDS011;58439;51.046;13.692;2023-06-22T04:12:37;20.77;;;11.82;;
70818;SDS011;58439;51.046;13.692;2023-06-22T04:15:05;18.25;;;11.52;;
70818;SDS011;58439;51.046;13.692;2023-06-22T04:17:32;19.88;;;11.77;;
70818;SDS011;58439;51.046;13.692;2023-06-22T04:23:41;18.35;;;11.45;;
70818;SDS011;58439;51.046;13.692;2023-06-22T04:26:09;16.90;;;10.90;;
70818;SDS011;58439;51.046;13.692;2023-06-22T04:28:37;18.88;;;11.73;;
70818;SDS011;58439;51.046;13.692;2023-06-22T04:31:25;20.00;;;11.07;;
70818;SDS011;58439;51.046;13.692;2023-06-22T04:34:36;18.92;;;11.32;;
70818;SDS011;58439;51.046;13.692;2023-06-22T04:37:53;22.35;;;12.13;;
70818;SDS011;58439;51.046;13.692;2023-06-22T04:41:09;19.42;;;11.82;;
70818;SDS011;58439;51.046;13.692;2023-06-22T04:43:41;18.90;;;11.25;;
70818;SDS011;58439;51.046;13.692;2023-06-22T04:46:09;19.75;;;12.10;;
70818;SDS011;58439;51.046;13.692;2023-06-22T04:48:36;20.35;;;11.40;;
70818;SDS011;58439;51.046;13.692;2023-06-22T04:51:03;20.52;;;11.57;;
70818;SDS011;58439;51.046;13.692;2023-06-22T04:53:33;22.40;;;12.75;;
70818;SDS011;58439;51.046;13.692;2023-06-22T04:56:07;18.52;;;11.82;;
70818;SDS011;58439;51.046;13.692;2023-06-22T04:58:35;19.13;;;11.13;;
70818;SDS011;58439;51.046;13.692;2023-06-22T05:04:09;21.35;;;11.23;;
70818;SDS011;58439;51.046;13.692;2023-06-22T05:06:44;18.83;;;10.73;;
70818;SDS011;58439;51.046;13.692;2023-06-22T05:09:39;19.92;;;12.02;;
70818;SDS011;58439;51.046;13.692;2023-06-22T05:12:06;17.88;;;11.82;;
70818;SDS011;58439;51.046;13.692;2023-06-22T05:14:38;18.40;;;11.07;;
70818;SDS011;58439;51.046;13.692;2023-06-22T05:17:31;18.02;;;11.55;;
70818;SDS011;58439;51.046;13.692;2023-06-22T05:20:07;17.98;;;12.20;;
70818;SDS011;58439;51.046;13.692;2023-06-22T05:26:11;18.52;;;10.98;;
70818;SDS011;58439;51.046;13.692;2023-06-22T05:28:48;18.92;;;10.93;;
70818;SDS011;58439;51.046;13.692;2023-06-22T05:31:23;18.80;;;12.13;;
70818;SDS011;58439;51.046;13.692;2023-06-22T05:33:51;23.77;;;12.05;;
70818;SDS011;58439;51.046;13.692;2023-06-22T05:36:21;17.83;;;11.60;;
70818;SDS011;58439;51.046;13.692;2023-06-22T05:38:52;22.02;;;11.45;;
70818;SDS011;58439;51.046;13.692;2023-06-22T05:41:20;17.88;;;11.30;;
70818;SDS011;58439;51.046;13.692;2023-06-22T05:43:47;20.55;;;11.55;;
70818;SDS011;58439;51.046;13.692;2023-06-22T05:46:14;21.60;;;11.40;;
70818;SDS011;58439;51.046;13.692;2023-06-22T05:48:43;22.35;;;12.82;;
70818;SDS011;58439;51.046;13.692;2023-06-22T05:51:11;18.05;;;11.95;;
70818;SDS011;58439;51.046;13.692;2023-06-22T05:53:43;19.77;;;11.75;;
70818;SDS011;58439;51.046;13.692;2023-06-22T05:56:25;16.88;;;10.77;;
70818;SDS011;58439;51.046;13.692;2023-06-22T05:59:11;18.95;;;11.90;;
70818;SDS011;58439;51.046;13.692;2023-06-22T06:01:44;17.73;;;11.38;;
70818;SDS011;58439;51.046;13.692;2023-06-22T06:04:21;16.55;;;11.70;;
70818;SDS011;58439;51.046;13.692;2023-06-22T06:06:54;21.13;;;12.65;;
70818;SDS011;58439;51.046;13.692;2023-06-22T06:09:27;20.02;;;12.18;;
70818;SDS011;58439;51.046;13.692;2023-06-22T06:11:55;24.33;;;12.43;;
70818;SDS011;58439;51.046;13.692;2023-06-22T06:14:25;20.10;;;11.35;;
70818;SDS011;58439;51.046;13.692;2023-06-22T06:16:58;18.30;;;11.52;;
70818;SDS011;58439;51.046;13.692;2023-06-22T06:19:30;22.38;;;11.45;;
70818;SDS011;58439;51.046;13.692;2023-06-22T06:21:58;18.42;;;10.75;;
70818;SDS011;58439;51.046;13.692;2023-06-22T06:24:25;22.65;;;10.52;;
70818;SDS011;58439;51.046;13.692;2023-06-22T06:26:53;16.65;;;10.85;;
70818;SDS011;58439;51.046;13.692;2023-06-22T06:29:23;14.07;;;9.27;;
70818;SDS011;58439;51.046;13.692;2023-06-22T06:31:50;16.88;;;9.68;;
70818;SDS011;58439;51.046;13.692;2023-06-22T06:34:20;16.98;;;9.63;;
70818;SDS011;58439;51.046;13.692;2023-06-22T06:36:50;15.32;;;9.63;;
70818;SDS011;58439;51.046;13.692;2023-06-22T06:39:21;15.50;;;9.40;;
70818;SDS011;58439;51.046;13.692;2023-06-22T06:42:03;11.40;;;8.93;;
70818;SDS011;58439;51.046;13.692;2023-06-22T06:44:45;17.77;;;9.35;;
70818;SDS011;58439;51.046;13.692;2023-06-22T06:47:28;14.77;;;8.68;;
70818;SDS011;58439;51.046;13.692;2023-06-22T06:50:00;17.20;;;9.90;;
70818;SDS011;58439;51.046;13.692;2023-06-22T06:52:28;13.85;;;8.68;;
70818;SDS011;58439;51.046;13.692;2023-06-22T06:54:56;21.05;;;9.85;;
70818;SDS011;58439;51.046;13.692;2023-06-22T06:57:23;12.48;;;8.85;;
70818;SDS011;58439;51.046;13.692;2023-06-22T06:59:50;15.13;;;8.88;;
70818;SDS011;58439;51.046;13.692;2023-06-22T07:02:17;21.13;;;9.65;;
70818;SDS011;58439;51.046;13.692;2023-06-22T07:04:45;14.55;;;9.10;;
70818;SDS011;58439;51.046;13.692;2023-06-22T07:07:13;15.05;;;9.25;;
70818;SDS011;58439;51.046;13.692;2023-06-22T07:09:40;14.77;;;9.48;;
70818;SDS011;58439;51.046;13.692;2023-06-22T07:12:08;16.38;;;9.57;;
70818;SDS011;58439;51.046;13.692;2023-06-22T07:14:44;18.88;;;9.68;;
70818;SDS011;58439;51.046;13.692;2023-06-22T07:17:39;15.65;;;9.35;;
70818;SDS011;58439;51.046;13.692;2023-06-22T07:20:08;18.63;;;9.38;;
70818;SDS011;58439;51.046;13.692;2023-06-22T07:22:38;15.68;;;9.55;;
70818;SDS011;58439;51.046;13.692;2023-06-22T07:25:09;13.98;;;8.98;;
70818;SDS011;58439;51.046;13.692;2023-06-22T07:30:32;13.63;;;9.20;;
70818;SDS011;58439;51.046;13.692;2023-06-22T07:33:01;18.83;;;9.50;;
70818;SDS011;58439;51.046;13.692;2023-06-22T07:35:35;14.18;;;9.27;;
70818;SDS011;58439;51.046;13.692;2023-06-22T07:38:02;15.95;;;9.55;;
70818;SDS011;58439;51.046;13.692;2023-06-22T07:40:32;14.63;;;8.57;;
70818;SDS011;58439;51.046;13.692;2023-06-22T07:43:00;23.85;;;9.23;;
70818;SDS011;58439;51.046;13.692;2023-06-22T07:45:28;16.40;;;9.13;;
70818;SDS011;58439;51.046;13.692;2023-06-22T07:47:56;12.98;;;8.98;;
70818;SDS011;58439;51.046;13.692;2023-06-22T07:50:23;12.88;;;8.85;;
70818;SDS011;58439;51.046;13.692;2023-06-22T07:52:51;15.38;;;9.10;;
70818;SDS011;58439;51.046;13.692;2023-06-22T07:55:19;13.98;;;9.52;;
70818;SDS011;58439;51.046;13.692;2023-06-22T08:03:41;12.13;;;8.38;;
70818;SDS011;58439;51.046;13.692;2023-06-22T08:06:09;15.48;;;9.43;;
70818;SDS011;58439;51.046;13.692;2023-06-22T08:08:39;11.65;;;8.88;;
70818;SDS011;58439;51.046;13.692;2023-06-22T08:11:06;11.48;;;8.32;;
70818;SDS011;58439;51.046;13.692;2023-06-22T08:13:33;15.90;;;9.02;;
70818;SDS011;58439;51.046;13.692;2023-06-22T08:19:43;14.40;;;8.63;;
70818;SDS011;58439;51.046;13.692;2023-06-22T08:22:16;11.23;;;7.70;;
70818;SDS011;58439;51.046;13.692;2023-06-22T08:25:22;11.80;;;8.30;;
70818;SDS011;58439;51.046;13.692;2023-06-22T08:27:49;10.80;;;8.20;;
70818;SDS011;58439;51.046;13.692;2023-06-22T08:30:17;16.25;;;8.68;;
70818;SDS011;58439;51.046;13.692;2023-06-22T08:33:12;12.98;;;8.13;;
70818;SDS011;58439;51.046;13.692;2023-06-22T08:36:00;14.73;;;7.75;;
70818;SDS011;58439;51.046;13.692;2023-06-22T08:38:48;10.43;;;7.78;;
70818;SDS011;58439;51.046;13.692;2023-06-22T08:41:17;10.88;;;8.07;;
70818;SDS011;58439;51.046;13.692;2023-06-22T08:43:45;12.65;;;6.88;;
70818;SDS011;58439;51.046;13.692;2023-06-22T08:46:13;10.05;;;7.00;;
70818;SDS011;58439;51.046;13.692;2023-06-22T08:48:40;11.68;;;6.97;;
70818;SDS011;58439;51.046;13.692;2023-06-22T08:51:07;10.57;;;6.82;;
70818;SDS011;58439;51.046;13.692;2023-06-22T08:53:34;12.88;;;7.03;;
70818;SDS011;58439;51.046;13.692;2023-06-22T08:56:01;10.15;;;7.43;;
70818;SDS011;58439;51.046;13.692;2023-06-22T08:58:28;8.65;;;6.85;;
70818;SDS011;58439;51.046;13.692;2023-06-22T09:00:56;10.38;;;6.80;;
70818;SDS011;58439;51.046;13.692;2023-06-22T09:03:23;11.35;;;7.10;;
70818;SDS011;58439;51.046;13.692;2023-06-22T09:05:53;13.25;;;7.30;;
70818;SDS011;58439;51.046;13.692;2023-06-22T09:08:20;12.38;;;6.47;;
70818;SDS011;58439;51.046;13.692;2023-06-22T09:10:48;14.18;;;6.82;;
70818;SDS011;58439;51.046;13.692;2023-06-22T09:13:15;13.02;;;6.68;;
70818;SDS011;58439;51.046;13.692;2023-06-22T09:15:42;11.45;;;6.53;;
70818;SDS011;58439;51.046;13.692;2023-06-22T09:18:10;10.68;;;6.10;;
70818;SDS011;58439;51.046;13.692;2023-06-22T09:20:38;10.63;;;6.55;;
70818;SDS011;58439;51.046;13.692;2023-06-22T09:23:08;12.45;;;6.38;;
70818;SDS011;58439;51.046;13.692;2023-06-22T09:25:57;9.88;;;6.82;;
70818;SDS011;58439;51.046;13.692;2023-06-22T09:28:24;11.02;;;6.97;;
70818;SDS011;58439;51.046;13.692;2023-06-22T09:30:52;8.80;;;6.75;;
70818;SDS011;58439;51.046;13.692;2023-06-22T09:33:25;10.63;;;7.15;;
70818;SDS011;58439;51.046;13.692;2023-06-22T09:35:52;11.80;;;7.55;;
70818;SDS011;58439;51.046;13.692;2023-06-22T09:38:20;9.98;;;7.28;;
70818;SDS011;58439;51.046;13.692;2023-06-22T09:40:47;11.75;;;7.75;;
70818;SDS011;58439;51.046;13.692;2023-06-22T09:43:15;10.95;;;7.28;;
70818;SDS011;58439;51.046;13.692;2023-06-22T09:45:42;10.00;;;6.85;;
70818;SDS011;58439;51.046;13.692;2023-06-22T09:48:25;10.82;;;7.30;;
70818;SDS011;58439;51.046;13.692;2023-06-22T09:51:20;13.68;;;7.30;;
70818;SDS011;58439;51.046;13.692;2023-06-22T09:53:55;10.35;;;7.00;;
70818;SDS011;58439;51.046;13.692;2023-06-22T09:59:14;11.13;;;7.20;;
70818;SDS011;58439;51.046;13.692;2023-06-22T10:01:54;12.05;;;7.65;;
70818;SDS011;58439;51.046;13.692;2023-06-22T10:04:42;11.90;;;6.97;;
70818;SDS011;58439;51.046;13.692;2023-06-22T10:07:23;9.20;;;7.40;;
70818;SDS011;58439;51.046;13.692;2023-06-22T10:10:10;10.55;;;7.57;;
70818;SDS011;58439;51.046;13.692;2023-06-22T10:13:06;9.55;;;7.53;;
70818;SDS011;58439;51.046;13.692;2023-06-22T10:26:03;10.32;;;6.97;;
70818;SDS011;58439;51.046;13.692;2023-06-22T10:28:33;10.43;;;6.68;;
70818;SDS011;58439;51.046;13.692;2023-06-22T10:31:00;10.48;;;7.07;;
70818;SDS011;58439;51.046;13.692;2023-06-22T10:33:27;10.05;;;6.90;;
70818;SDS011;58439;51.046;13.692;2023-06-22T10:35:54;8.65;;;6.95;;
70818;SDS011;58439;51.046;13.692;2023-06-22T10:38:22;8.77;;;6.80;;
70818;SDS011;58439;51.046;13.692;2023-06-22T10:40:49;8.48;;;6.00;;
70818;SDS011;58439;51.046;13.692;2023-06-22T10:43:17;9.65;;;7.07;;
70818;SDS011;58439;51.046;13.692;2023-06-22T10:46:29;8.65;;;6.82;;
70818;SDS011;58439;51.046;13.692;2023-06-22T10:49:15;9.65;;;6.80;;
70818;SDS011;58439;51.046;13.692;2023-06-22T10:51:55;10.02;;;7.38;;
70818;SDS011;58439;51.046;13.692;2023-06-22T10:54:29;13.05;;;7.00;;
70818;SDS011;58439;51.046;13.692;2023-06-22T10:57:01;9.97;;;6.50;;
70818;SDS011;58439;51.046;13.692;2023-06-22T10:59:56;13.80;;;6.95;;
70818;SDS011;58439;51.046;13.692;2023-06-22T11:02:43;11.05;;;6.70;;
70818;SDS011;58439;51.046;13.692;2023-06-22T11:05:36;9.95;;;6.93;;
70818;SDS011;58439;51.046;13.692;2023-06-22T11:09:17;10.32;;;7.25;;
70818;SDS011;58439;51.046;13.692;2023-06-22T11:12:09;10.68;;;6.85;;
70818;SDS011;58439;51.046;13.692;2023-06-22T11:15:40;11.90;;;7.00;;
70818;SDS011;58439;51.046;13.692;2023-06-22T11:18:07;12.52;;;7.15;;
70818;SDS011;58439;51.046;13.692;2023-06-22T11:20:34;8.70;;;6.60;;
70818;SDS011;58439;51.046;13.692;2023-06-22T11:23:06;16.15;;;6.95;;
70818;SDS011;58439;51.046;13.692;2023-06-22T11:25:56;12.68;;;6.88;;
70818;SDS011;58439;51.046;13.692;2023-06-22T11:37:57;10.93;;;5.93;;
70818;SDS011;58439;51.046;13.692;2023-06-22T11:41:20;9.95;;;6.60;;
70818;SDS011;58439;51.046;13.692;2023-06-22T11:43:51;11.30;;;6.63;;
70818;SDS011;58439;51.046;13.692;2023-06-22T11:46:35;9.00;;;6.47;;
70818;SDS011;58439;51.046;13.692;2023-06-22T11:50:00;11.23;;;6.20;;
70818;SDS011;58439;51.046;13.692;2023-06-22T11:53:52;7.60;;;5.78;;
70818;SDS011;58439;51.046;13.692;2023-06-22T11:57:12;8.13;;;6.22;;
70818;SDS011;58439;51.046;13.692;2023-06-22T12:01:16;9.85;;;5.88;;
70818;SDS011;58439;51.046;13.692;2023-06-22T12:03:44;9.65;;;6.40;;
70818;SDS011;58439;51.046;13.692;2023-06-22T12:06:11;6.60;;;5.40;;
70818;SDS011;58439;51.046;13.692;2023-06-22T12:08:38;8.50;;;5.57;;
70818;SDS011;58439;51.046;13.692;2023-06-22T12:11:06;8.27;;;5.72;;
70818;SDS011;58439;51.046;13.692;2023-06-22T12:13:34;8.82;;;5.80;;
70818;SDS011;58439;51.046;13.692;2023-06-22T12:16:01;8.77;;;5.75;;
70818;SDS011;58439;51.046;13.692;2023-06-22T12:18:28;8.30;;;5.85;;
70818;SDS011;58439;51.046;13.692;2023-06-22T12:20:58;8.82;;;6.43;;
70818;SDS011;58439;51.046;13.692;2023-06-22T12:23:25;7.20;;;6.13;;
70818;SDS011;58439;51.046;13.692;2023-06-22T12:25:52;8.45;;;6.15;;
70818;SDS011;58439;51.046;13.692;2023-06-22T12:28:19;13.27;;;5.93;;
70818;SDS011;58439;51.046;13.692;2023-06-22T12:30:47;8.18;;;5.80;;
70818;SDS011;58439;51.046;13.692;2023-06-22T12:33:14;9.57;;;6.22;;
70818;SDS011;58439;51.046;13.692;2023-06-22T12:35:41;18.35;;;6.53;;
70818;SDS011;58439;51.046;13.692;2023-06-22T12:38:08;10.75;;;5.85;;
70818;SDS011;58439;51.046;13.692;2023-06-22T12:40:35;7.75;;;5.43;;
70818;SDS011;58439;51.046;13.692;2023-06-22T12:43:03;7.05;;;5.35;;
70818;SDS011;58439;51.046;13.692;2023-06-22T12:45:30;7.40;;;5.90;;
70818;SDS011;58439;51.046;13.692;2023-06-22T12:48:00;10.07;;;5.73;;
70818;SDS011;58439;51.046;13.692;2023-06-22T12:50:27;7.47;;;5.43;;
70818;SDS011;58439;51.046;13.692;2023-06-22T12:52:55;8.50;;;5.57;;
70818;SDS011;58439;51.046;13.692;2023-06-22T12:55:22;8.07;;;5.28;;
70818;SDS011;58439;51.046;13.692;2023-06-22T12:57:50;7.32;;;5.35;;
70818;SDS011;58439;51.046;13.692;2023-06-22T13:04:07;11.57;;;5.68;;
70818;SDS011;58439;51.046;13.692;2023-06-22T13:06:34;8.73;;;5.60;;
70818;SDS011;58439;51.046;13.692;2023-06-22T13:09:01;9.20;;;5.50;;
70818;SDS011;58439;51.046;13.692;2023-06-22T13:11:34;7.10;;;5.25;;
70818;SDS011;58439;51.046;13.692;2023-06-22T13:14:02;9.93;;;5.28;;
70818;SDS011;58439;51.046;13.692;2023-06-22T13:18:59;8.35;;;6.18;;
70818;SDS011;58439;51.046;13.692;2023-06-22T13:21:27;8.43;;;5.43;;
70818;SDS011;58439;51.046;13.692;2023-06-22T13:23:54;9.35;;;5.50;;
70818;SDS011;58439;51.046;13.692;2023-06-22T13:26:21;9.00;;;5.50;;
70818;SDS011;58439;51.046;13.692;2023-06-22T13:28:49;8.73;;;5.53;;
70818;SDS011;58439;51.046;13.692;2023-06-22T13:31:16;7.63;;;5.70;;
70818;SDS011;58439;51.046;13.692;2023-06-22T13:33:43;8.60;;;5.43;;
70818;SDS011;58439;51.046;13.692;2023-06-22T13:36:14;10.07;;;5.70;;
70818;SDS011;58439;51.046;13.692;2023-06-22T13:41:44;7.97;;;5.28;;
70818;SDS011;58439;51.046;13.692;2023-06-22T13:44:11;14.85;;;7.13;;
70818;SDS011;58439;51.046;13.692;2023-06-22T13:47:03;9.02;;;5.45;;
70818;SDS011;58439;51.046;13.692;2023-06-22T13:49:43;9.13;;;6.00;;
70818;SDS011;58439;51.046;13.692;2023-06-22T13:52:15;8.20;;;5.47;;
70818;SDS011;58439;51.046;13.692;2023-06-22T13:54:49;9.30;;;5.53;;
70818;SDS011;58439;51.046;13.692;2023-06-22T13:57:45;10.95;;;6.00;;
70818;SDS011;58439;51.046;13.692;2023-06-22T14:00:18;8.05;;;5.25;;
70818;SDS011;58439;51.046;13.692;2023-06-22T14:02:49;8.25;;;4.90;;
70818;SDS011;58439;51.046;13.692;2023-06-22T14:05:56;9.03;;;5.37;;
70818;SDS011;58439;51.046;13.692;2023-06-22T14:08:28;7.32;;;5.35;;
70818;SDS011;58439;51.046;13.692;2023-06-22T14:11:07;7.13;;;6.10;;
70818;SDS011;58439;51.046;13.692;2023-06-22T14:21:44;10.20;;;5.82;;
70818;SDS011;58439;51.046;13.692;2023-06-22T14:50:08;6.28;;;5.32;;
70818;SDS011;58439;51.046;13.692;2023-06-22T14:53:23;7.55;;;5.50;;
70818;SDS011;58439;51.046;13.692;2023-06-22T15:09:32;8.25;;;5.75;;
70818;SDS011;58439;51.046;13.692;2023-06-22T15:13:31;9.02;;;6.05;;
70818;SDS011;58439;51.046;13.692;2023-06-22T16:02:18;10.25;;;6.45;;
70818;SDS011;58439;51.046;13.692;2023-06-22T16:04:46;11.45;;;7.20;;
70818;SDS011;58439;51.046;13.692;2023-06-22T16:07:14;8.52;;;7.20;;
70818;SDS011;58439;51.046;13.692;2023-06-22T16:10:18;9.77;;;6.70;;
70818;SDS011;58439;51.046;13.692;2023-06-22T16:13:17;14.02;;;7.20;;
70818;SDS011;58439;51.046;13.692;2023-06-22T16:22:27;12.02;;;7.18;;
70818;SDS011;58439;51.046;13.692;2023-06-22T16:26:45;11.20;;;7.30;;
70818;SDS011;58439;51.046;13.692;2023-06-22T16:42:22;11.68;;;7.97;;
70818;SDS011;58439;51.046;13.692;2023-06-22T16:44:55;14.75;;;8.43;;
70818;SDS011;58439;51.046;13.692;2023-06-22T16:47:25;11.82;;;7.45;;
70818;SDS011;58439;51.046;13.692;2023-06-22T16:50:04;12.48;;;7.75;;
70818;SDS011;58439;51.046;13.692;2023-06-22T16:52:43;10.68;;;7.70;;
70818;SDS011;58439;51.046;13.692;2023-06-22T16:55:12;11.57;;;8.25;;
70818;SDS011;58439;51.046;13.692;2023-06-22T16:57:40;9.50;;;7.55;;
70818;SDS011;58439;51.046;13.692;2023-06-22T17:00:12;15.13;;;7.20;;
70818;SDS011;58439;51.046;13.692;2023-06-22T17:02:46;10.50;;;7.80;;
70818;SDS011;58439;51.046;13.692;2023-06-22T17:05:23;11.63;;;8.05;;
70818;SDS011;58439;51.046;13.692;2023-06-22T17:08:19;10.95;;;7.50;;
70818;SDS011;58439;51.046;13.692;2023-06-22T17:11:42;10.48;;;7.68;;
70818;SDS011;58439;51.046;13.692;2023-06-22T17:14:33;10.35;;;7.97;;
70818;SDS011;58439;51.046;13.692;2023-06-22T17:18:16;11.93;;;7.45;;
70818;SDS011;58439;51.046;13.692;2023-06-22T17:20:45;9.40;;;7.88;;
70818;SDS011;58439;51.046;13.692;2023-06-22T17:23:13;13.93;;;7.75;;
70818;SDS011;58439;51.046;13.692;2023-06-22T17:25:40;11.13;;;7.28;;
70818;SDS011;58439;51.046;13.692;2023-06-22T17:28:09;16.95;;;7.93;;
70818;SDS011;58439;51.046;13.692;2023-06-22T17:30:36;11.43;;;7.38;;
70818;SDS011;58439;51.046;13.692;2023-06-22T17:33:07;12.13;;;7.28;;
70818;SDS011;58439;51.046;13.692;2023-06-22T17:41:55;11.07;;;8.25;;
70818;SDS011;58439;51.046;13.692;2023-06-22T17:44:23;11.80;;;7.63;;
70818;SDS011;58439;51.046;13.692;2023-06-22T17:46:56;11.73;;;8.05;;
70818;SDS011;58439;51.046;13.692;2023-06-22T17:49:27;13.25;;;8.23;;
70818;SDS011;58439;51.046;13.692;2023-06-22T17:51:55;14.23;;;8.07;;
70818;SDS011;58439;51.046;13.692;2023-06-22T17:54:28;12.70;;;8.55;;
70818;SDS011;58439;51.046;13.692;2023-06-22T17:57:20;13.55;;;9.75;;
70818;SDS011;58439;51.046;13.692;2023-06-22T17:59:48;12.55;;;8.75;;
70818;SDS011;58439;51.046;13.692;2023-06-22T18:02:22;12.77;;;8.68;;
70818;SDS011;58439;51.046;13.692;2023-06-22T18:05:02;15.20;;;8.48;;
70818;SDS011;58439;51.046;13.692;2023-06-22T18:07:30;13.88;;;8.70;;
70818;SDS011;58439;51.046;13.692;2023-06-22T18:10:03;12.80;;;8.90;;
70818;SDS011;58439;51.046;13.692;2023-06-22T18:12:33;14.68;;;8.93;;